createdAt,value
2018-10-12T00:00:53.523Z,15.50
2018-10-12T00:03:21.680Z,15.20
2018-10-12T00:05:49.854Z,15.13
2018-10-12T00:08:18.164Z,14.90
2018-10-12T00:10:46.330Z,15.57
2018-10-12T00:13:14.544Z,14.87
2018-10-12T00:15:42.716Z,15.73
2018-10-12T00:18:10.938Z,15.17
2018-10-12T00:20:39.084Z,14.80
2018-10-12T00:23:07.265Z,15.80
2018-10-12T00:25:35.510Z,15.20
2018-10-12T00:28:03.666Z,16.27
2018-10-12T00:30:31.888Z,15.87
2018-10-12T00:33:00.076Z,15.30
2018-10-12T00:35:28.306Z,15.53
2018-10-12T00:37:56.604Z,16.50
2018-10-12T00:40:24.827Z,16.30
2018-10-12T00:42:53.590Z,16.03
2018-10-12T00:45:21.824Z,16.17
2018-10-12T00:47:55.442Z,16.30
2018-10-12T00:50:23.661Z,15.37
2018-10-12T00:52:51.845Z,17.20
2018-10-12T00:55:20.154Z,16.20
2018-10-12T00:57:48.330Z,15.50
2018-10-12T01:00:16.541Z,15.50
2018-10-12T01:02:44.776Z,17.50
2018-10-12T01:05:12.981Z,15.60
2018-10-12T01:07:41.395Z,16.43
2018-10-12T01:10:09.670Z,16.10
2018-10-12T01:12:38.272Z,17.50
2018-10-12T01:15:06.917Z,17.33
2018-10-12T01:17:35.857Z,16.67
2018-10-12T01:20:04.303Z,16.13
2018-10-12T01:22:32.481Z,16.50
2018-10-12T01:25:01.861Z,17.53
2018-10-12T01:27:30.322Z,17.20
2018-10-12T01:29:58.837Z,16.83
2018-10-12T01:32:32.382Z,17.83
2018-10-12T01:35:00.553Z,16.90
2018-10-12T01:37:28.915Z,16.63
2018-10-12T01:40:03.819Z,17.90
2018-10-12T01:42:32.005Z,18.70
2018-10-12T01:45:00.167Z,17.20
2018-10-12T01:47:28.421Z,16.87
2018-10-12T01:49:56.612Z,18.20
2018-10-12T01:52:24.806Z,17.00
2018-10-12T01:54:52.973Z,18.90
2018-10-12T01:57:21.204Z,18.47
2018-10-12T01:59:49.375Z,17.50
2018-10-12T02:02:17.599Z,18.47
2018-10-12T02:04:45.865Z,18.80
2018-10-12T02:07:14.077Z,17.87
2018-10-12T02:09:42.293Z,18.60
2018-10-12T02:12:10.475Z,19.30
2018-10-12T02:14:38.648Z,18.63
2018-10-12T02:17:06.853Z,18.63
2018-10-12T02:19:35.031Z,18.60
2018-10-12T02:22:03.233Z,19.73
2018-10-12T02:24:31.495Z,19.27
2018-10-12T02:26:59.709Z,19.23
2018-10-12T02:29:27.931Z,19.13
2018-10-12T02:31:56.168Z,19.87
2018-10-12T02:34:24.379Z,19.30
2018-10-12T02:36:52.513Z,18.30
2018-10-12T02:39:20.708Z,18.60
2018-10-12T02:41:48.911Z,19.37
2018-10-12T02:44:17.099Z,19.00
2018-10-12T02:46:45.298Z,20.23
2018-10-12T02:49:13.479Z,17.60
2018-10-12T02:51:41.726Z,20.97
2018-10-12T02:54:09.893Z,18.03
2018-10-12T02:56:38.092Z,19.47
2018-10-12T02:59:06.397Z,19.60
2018-10-12T03:01:34.589Z,19.77
2018-10-12T03:04:02.850Z,20.00
2018-10-12T03:06:30.998Z,20.57
2018-10-12T03:08:59.223Z,20.50
2018-10-12T03:11:27.414Z,21.90
2018-10-12T03:13:55.664Z,21.70
2018-10-12T03:16:23.833Z,20.93
2018-10-12T03:18:52.038Z,20.63
2018-10-12T03:21:20.252Z,20.60
2018-10-12T03:23:48.426Z,19.97
2018-10-12T03:26:16.714Z,20.87
2018-10-12T03:28:44.886Z,19.63
2018-10-12T03:31:13.054Z,22.20
2018-10-12T03:33:41.298Z,21.20
2018-10-12T03:36:09.489Z,21.13
2018-10-12T03:38:37.726Z,21.17
2018-10-12T03:41:05.920Z,20.17
2018-10-12T03:43:34.112Z,21.83
2018-10-12T03:46:02.312Z,21.90
2018-10-12T03:48:30.512Z,21.40
2018-10-12T03:50:58.685Z,19.77
2018-10-12T03:53:26.932Z,21.63
2018-10-12T03:55:55.111Z,22.13
2018-10-12T03:58:23.309Z,21.07
2018-10-12T04:00:51.540Z,21.63
2018-10-12T04:03:19.718Z,22.27
2018-10-12T04:05:48.028Z,20.47
2018-10-12T04:08:16.234Z,22.30
2018-10-12T04:10:44.436Z,23.10
2018-10-12T04:13:12.602Z,22.47
2018-10-12T04:15:40.850Z,21.43
2018-10-12T04:18:09.078Z,20.13
2018-10-12T04:20:37.358Z,21.63
2018-10-12T04:23:05.645Z,21.17
2018-10-12T04:25:33.804Z,22.33
2018-10-12T04:28:02.010Z,22.07
2018-10-12T04:30:30.164Z,22.57
2018-10-12T04:32:58.378Z,21.93
2018-10-12T04:35:26.320Z,22.37
2018-10-12T04:37:54.517Z,23.23
2018-10-12T04:41:28.019Z,22.57
2018-10-12T04:43:58.643Z,22.80
2018-10-12T04:46:31.072Z,23.53
2018-10-12T04:48:59.464Z,23.57
2018-10-12T04:51:29.582Z,22.63
2018-10-12T04:53:57.802Z,23.87
2018-10-12T04:56:26.374Z,23.80
2018-10-12T04:58:54.606Z,24.00
2018-10-12T05:01:22.896Z,24.07
2018-10-12T05:03:51.069Z,24.20
2018-10-12T05:06:19.232Z,22.77
2018-10-12T05:08:47.463Z,24.80
2018-10-12T05:11:15.644Z,23.07
2018-10-12T05:13:50.448Z,24.17
2018-10-12T05:16:18.598Z,23.70
2018-10-12T05:18:46.881Z,25.47
2018-10-12T05:21:15.092Z,24.77
2018-10-12T05:23:43.270Z,25.50
2018-10-12T05:26:11.497Z,24.07
2018-10-12T05:28:39.842Z,25.50
2018-10-12T05:31:08.364Z,25.83
2018-10-12T05:33:36.590Z,24.17
2018-10-12T05:36:04.886Z,25.17
2018-10-12T05:38:33.414Z,26.30
2018-10-12T05:41:01.880Z,25.80
2018-10-12T05:43:30.328Z,24.60
2018-10-12T05:45:58.516Z,25.43
2018-10-12T05:48:38.262Z,26.87
2018-10-12T05:51:07.115Z,25.43
2018-10-12T05:53:35.562Z,26.43
2018-10-12T05:56:04.041Z,24.47
2018-10-12T05:58:32.501Z,24.53
2018-10-12T06:01:00.683Z,24.30
2018-10-12T06:03:28.905Z,24.57
2018-10-12T06:05:57.083Z,26.50
2018-10-12T06:08:25.220Z,24.33
2018-10-12T06:10:53.461Z,25.80
2018-10-12T06:13:21.665Z,24.40
2018-10-12T06:15:49.906Z,24.27
2018-10-12T06:18:18.122Z,24.70
2018-10-12T06:20:52.981Z,25.33
2018-10-12T06:23:21.179Z,24.17
2018-10-12T06:25:49.335Z,26.33
2018-10-12T06:28:17.587Z,26.67
2018-10-12T06:30:45.735Z,24.40
2018-10-12T06:33:13.981Z,25.07
2018-10-12T06:35:42.169Z,25.87
2018-10-12T06:38:10.492Z,24.10
2018-10-12T06:40:38.781Z,22.83
2018-10-12T06:43:07.073Z,25.63
2018-10-12T06:45:35.298Z,24.40
2018-10-12T06:48:03.537Z,24.60
2018-10-12T06:50:31.737Z,24.57
2018-10-12T06:52:59.919Z,25.40
2018-10-12T06:55:28.123Z,25.03
2018-10-12T06:57:56.335Z,23.00
2018-10-12T07:00:24.773Z,24.40
2018-10-12T07:02:52.947Z,24.43
2018-10-12T07:05:21.377Z,24.30
2018-10-12T07:07:49.565Z,24.23
2018-10-12T07:10:17.806Z,24.40
2018-10-12T07:12:45.967Z,23.77
2018-10-12T07:15:14.187Z,24.53
2018-10-12T07:17:42.426Z,23.53
2018-10-12T07:20:10.606Z,24.90
2018-10-12T07:22:39.076Z,24.30
2018-10-12T07:25:07.218Z,21.77
2018-10-12T07:27:35.463Z,23.57
2018-10-12T07:30:03.698Z,24.03
2018-10-12T07:32:31.902Z,23.17
2018-10-12T07:35:00.101Z,22.90
2018-10-12T07:37:28.340Z,23.07
2018-10-12T07:39:56.596Z,23.20
2018-10-12T07:42:24.835Z,23.73
2018-10-12T07:44:53.061Z,19.97
2018-10-12T07:47:21.351Z,23.20
2018-10-12T07:49:49.507Z,21.77
2018-10-12T07:52:17.680Z,22.90
2018-10-12T07:54:45.896Z,20.87
2018-10-12T07:57:15.058Z,22.57
2018-10-12T07:59:44.276Z,22.07
2018-10-12T08:02:13.134Z,19.90
2018-10-12T08:04:42.219Z,21.83
2018-10-12T08:07:11.599Z,20.20
2018-10-12T08:09:39.895Z,20.40
2018-10-12T08:12:08.021Z,19.40
2018-10-12T08:14:36.248Z,20.23
2018-10-12T08:17:04.458Z,19.30
2018-10-12T08:19:32.671Z,18.30
2018-10-12T08:22:00.976Z,19.73
2018-10-12T08:24:29.290Z,17.33
2018-10-12T08:26:57.510Z,18.87
2018-10-12T08:29:26.923Z,20.67
2018-10-12T08:31:55.126Z,19.53
2018-10-12T08:34:23.477Z,18.93
2018-10-12T08:36:51.762Z,20.10
2018-10-12T08:39:20.003Z,19.67
2018-10-12T08:41:48.367Z,18.97
2018-10-12T08:44:16.702Z,18.33
2018-10-12T08:46:44.947Z,21.87
2018-10-12T08:49:13.255Z,19.27
2018-10-12T08:51:41.500Z,18.03
2018-10-12T08:54:09.936Z,19.00
2018-10-12T08:56:38.590Z,17.33
2018-10-12T08:59:06.858Z,16.27
2018-10-12T09:01:35.095Z,16.10
2018-10-12T09:04:03.465Z,18.07
2018-10-12T09:06:31.941Z,18.30
2018-10-12T09:09:01.000Z,17.70
2018-10-12T09:11:29.240Z,16.77
2018-10-12T09:13:57.406Z,17.17
2018-10-12T09:16:25.706Z,16.70
2018-10-12T09:18:53.899Z,18.43
2018-10-12T09:21:22.152Z,18.17
2018-10-12T09:23:50.351Z,17.43
2018-10-12T09:26:18.604Z,18.97
2018-10-12T09:28:46.835Z,17.07
2018-10-12T09:31:15.261Z,18.17
2018-10-12T09:33:43.523Z,18.43
2018-10-12T09:36:11.843Z,18.13
2018-10-12T09:38:40.089Z,18.20
2018-10-12T09:41:08.061Z,17.20
2018-10-12T09:43:36.229Z,17.70
2018-10-12T09:46:04.624Z,17.50
2018-10-12T09:48:32.854Z,18.03
2018-10-12T09:51:01.101Z,17.33
2018-10-12T09:53:29.265Z,17.67
2018-10-12T09:55:57.340Z,16.63
2018-10-12T09:58:25.455Z,16.83
2018-10-12T10:00:59.133Z,17.40
2018-10-12T10:03:32.923Z,15.60
2018-10-12T10:06:01.364Z,15.63
2018-10-12T10:08:29.661Z,17.03
2018-10-12T10:10:57.789Z,15.70
2018-10-12T10:13:25.972Z,16.73
2018-10-12T10:15:54.214Z,16.60
2018-10-12T10:18:22.773Z,17.57
2018-10-12T10:20:50.727Z,16.40
2018-10-12T10:23:18.936Z,15.53
2018-10-12T10:25:47.182Z,16.33
2018-10-12T10:28:15.431Z,15.40
2018-10-12T10:30:43.773Z,15.67
2018-10-12T10:33:11.954Z,14.10
2018-10-12T10:35:40.153Z,15.00
2018-10-12T10:38:08.629Z,15.10
2018-10-12T10:40:36.722Z,14.70
2018-10-12T10:43:05.163Z,15.37
2018-10-12T10:45:33.457Z,13.10
2018-10-12T10:48:01.708Z,13.90
2018-10-12T10:50:29.961Z,13.67
2018-10-12T10:52:58.241Z,14.13
2018-10-12T10:55:26.503Z,13.73
2018-10-12T10:57:54.725Z,14.03
2018-10-12T11:00:22.975Z,13.17
2018-10-12T11:02:51.187Z,13.07
2018-10-12T11:05:19.441Z,13.40
2018-10-12T11:07:47.670Z,14.20
2018-10-12T11:10:15.894Z,15.33
2018-10-12T11:12:44.135Z,13.33
2018-10-12T11:15:12.388Z,14.00
2018-10-12T11:17:40.666Z,14.87
2018-10-12T11:20:08.874Z,14.33
2018-10-12T11:22:37.048Z,13.80
2018-10-12T11:25:05.304Z,13.17
2018-10-12T11:27:33.482Z,13.80
2018-10-12T11:30:02.632Z,13.30
2018-10-12T11:32:30.840Z,13.10
2018-10-12T11:34:59.020Z,13.60
2018-10-12T11:37:27.264Z,13.90
2018-10-12T11:39:55.520Z,13.33
2018-10-12T11:42:28.668Z,13.30
2018-10-12T11:44:56.953Z,15.20
2018-10-12T11:47:25.140Z,13.83
2018-10-12T11:49:53.390Z,13.47
2018-10-12T11:52:21.564Z,12.83
2018-10-12T11:54:49.861Z,11.63
2018-10-12T11:57:18.099Z,12.60
2018-10-12T11:59:46.313Z,11.07
2018-10-12T12:02:14.552Z,11.47
2018-10-12T12:04:42.827Z,12.00
2018-10-12T12:07:11.080Z,12.07
2018-10-12T12:09:39.252Z,11.87
2018-10-12T12:12:07.582Z,11.80
2018-10-12T12:14:35.802Z,11.37
2018-10-12T12:17:04.040Z,11.60
2018-10-12T12:19:32.880Z,13.77
2018-10-12T12:22:01.066Z,11.23
2018-10-12T12:24:29.336Z,11.33
2018-10-12T12:26:57.532Z,11.87
2018-10-12T12:29:25.792Z,11.73
2018-10-12T12:31:54.002Z,12.00
2018-10-12T12:34:22.239Z,11.70
2018-10-12T12:36:50.417Z,12.23
2018-10-12T12:39:18.589Z,11.80
2018-10-12T12:41:46.883Z,10.97
2018-10-12T12:44:15.085Z,10.97
2018-10-12T12:46:43.320Z,11.67
2018-10-12T12:49:11.987Z,10.87
2018-10-12T12:51:40.081Z,11.70
2018-10-12T12:54:08.904Z,10.70
2018-10-12T12:56:37.454Z,10.10
2018-10-12T12:59:05.913Z,11.33
2018-10-12T13:01:34.365Z,10.97
2018-10-12T13:04:03.297Z,11.33
2018-10-12T13:06:31.857Z,11.70
2018-10-12T13:09:00.400Z,10.40
2018-10-12T13:11:28.643Z,10.80
2018-10-12T13:13:56.806Z,11.53
2018-10-12T13:16:24.969Z,11.63
2018-10-12T13:19:00.389Z,11.30
2018-10-12T13:21:29.547Z,11.13
2018-10-12T13:23:57.857Z,11.23
2018-10-12T13:33:43.298Z,11.60
2018-10-12T13:36:16.639Z,11.20
2018-10-12T13:38:51.843Z,11.03
2018-10-12T13:41:26.739Z,10.73
2018-10-12T13:43:59.486Z,11.33
2018-10-12T13:46:32.197Z,11.90
2018-10-12T13:49:02.536Z,11.37
2018-10-12T13:51:36.599Z,10.80
2018-10-12T13:54:05.408Z,11.33
2018-10-12T13:56:35.607Z,12.03
2018-10-12T13:59:10.062Z,11.70
2018-10-12T14:01:39.063Z,10.70
2018-10-12T14:04:11.704Z,10.50
2018-10-12T14:06:40.475Z,10.30
2018-10-12T14:09:09.109Z,11.10
2018-10-12T14:11:43.325Z,10.40
2018-10-12T14:14:20.417Z,11.07
2018-10-12T14:16:49.071Z,11.10
2018-10-12T14:19:19.624Z,11.93
2018-10-12T14:21:55.069Z,11.60
2018-10-12T14:24:23.868Z,10.80
2018-10-12T14:26:57.228Z,11.87
2018-10-12T14:29:32.749Z,10.30
2018-10-12T14:32:07.132Z,11.20
2018-10-12T14:34:38.786Z,10.30
2018-10-12T14:37:12.315Z,11.60
2018-10-12T14:39:42.165Z,10.80
2018-10-12T14:42:13.606Z,10.90
2018-10-12T14:44:45.061Z,10.93
2018-10-12T14:47:19.522Z,10.90
2018-10-12T14:49:56.438Z,10.13
2018-10-12T14:52:26.206Z,10.50
2018-10-12T14:54:57.509Z,10.50
2018-10-12T14:57:28.441Z,10.73
2018-10-12T15:00:02.043Z,11.50
2018-10-12T15:02:30.227Z,11.50
2018-10-12T15:05:02.135Z,10.63
2018-10-12T15:07:31.509Z,10.67
2018-10-12T15:10:01.059Z,10.93
2018-10-12T15:12:30.289Z,10.87
2018-10-12T15:15:23.245Z,11.60
2018-10-12T15:17:53.310Z,10.90
2018-10-12T15:20:24.264Z,11.63
2018-10-12T15:22:57.620Z,11.37
2018-10-12T15:25:27.522Z,11.60
2018-10-12T15:27:58.100Z,11.20
2018-10-12T15:30:27.380Z,11.80
2018-10-12T15:32:57.818Z,11.10
2018-10-12T15:35:28.210Z,11.83
2018-10-12T15:37:59.933Z,11.87
2018-10-12T15:40:33.480Z,12.20
2018-10-12T15:43:06.737Z,11.63
2018-10-12T15:45:38.649Z,12.03
2018-10-12T15:48:07.764Z,12.77
2018-10-12T15:50:37.350Z,13.47
2018-10-12T15:53:07.888Z,12.27
2018-10-12T15:55:39.554Z,12.77
2018-10-12T15:58:11.389Z,21.40
2018-10-12T16:00:40.668Z,31.50
2018-10-12T16:03:10.765Z,20.27
2018-10-12T16:05:40.756Z,22.40
2018-10-12T16:08:09.844Z,12.73
2018-10-12T16:10:38.388Z,11.17
2018-10-12T16:13:06.590Z,13.40
2018-10-12T16:15:34.897Z,12.87
2018-10-12T16:18:03.162Z,12.73
2018-10-12T16:20:31.395Z,13.50
2018-10-12T16:23:00.333Z,12.73
2018-10-12T16:26:06.402Z,13.40
2018-10-12T16:28:34.844Z,13.97
2018-10-12T16:31:03.006Z,14.67
2018-10-12T16:33:31.192Z,14.20
2018-10-12T16:36:00.113Z,14.40
2018-10-12T16:38:28.187Z,14.70
2018-10-12T16:40:56.204Z,14.27
2018-10-12T16:43:24.461Z,14.70
2018-10-12T16:45:53.229Z,14.37
2018-10-12T16:48:21.257Z,15.50
2018-10-12T16:50:49.335Z,16.10
2018-10-12T16:53:17.275Z,18.23
2018-10-12T16:55:45.267Z,17.77
2018-10-12T16:58:14.476Z,17.43
2018-10-12T17:00:43.123Z,18.87
2018-10-12T17:03:17.136Z,17.30
2018-10-12T17:05:46.364Z,17.13
2018-10-12T17:08:14.678Z,15.83
2018-10-12T17:10:42.993Z,15.80
2018-10-12T17:13:11.257Z,16.60
2018-10-12T17:15:58.376Z,16.17
2018-10-12T17:18:26.880Z,17.00
2018-10-12T17:20:55.162Z,16.87
2018-10-12T17:23:23.675Z,16.57
2018-10-12T17:25:51.857Z,19.37
2018-10-12T17:28:19.946Z,17.63
2018-10-12T17:30:48.298Z,17.30
2018-10-12T17:33:16.536Z,19.73
2018-10-12T17:35:45.961Z,18.43
2018-10-12T17:38:14.284Z,17.40
2018-10-12T17:40:42.618Z,17.47
2018-10-12T17:43:10.976Z,17.83
2018-10-12T17:45:39.242Z,18.27
2018-10-12T17:48:07.524Z,17.00
2018-10-12T17:50:35.745Z,18.10
2018-10-12T17:53:04.077Z,18.03
2018-10-12T17:55:32.491Z,17.10
2018-10-12T17:58:01.363Z,16.73
2018-10-12T18:00:29.883Z,18.60
2018-10-12T18:02:58.054Z,17.50
2018-10-12T18:05:26.603Z,17.47
2018-10-12T18:07:55.115Z,17.00
2018-10-12T18:10:23.463Z,17.90
2018-10-12T18:12:51.769Z,23.93
2018-10-12T18:15:21.929Z,24.90
2018-10-12T18:17:50.267Z,19.97
2018-10-12T18:20:18.694Z,21.07
2018-10-12T18:22:47.050Z,19.67
2018-10-12T18:25:15.362Z,19.57
2018-10-12T18:27:43.795Z,20.43
2018-10-12T18:30:12.215Z,18.47
2018-10-12T18:32:40.870Z,18.63
2018-10-12T18:35:09.349Z,19.97
2018-10-12T18:37:37.688Z,20.00
2018-10-12T18:40:05.898Z,20.23
2018-10-12T18:42:34.108Z,19.27
2018-10-12T18:45:02.287Z,20.27
2018-10-12T18:47:30.559Z,22.90
2018-10-12T18:49:58.958Z,21.67
2018-10-12T18:52:27.308Z,22.30
2018-10-12T18:54:55.572Z,21.63
2018-10-12T18:57:23.876Z,22.57
2018-10-12T18:59:52.398Z,21.90
2018-10-12T19:02:20.843Z,22.40
2018-10-12T19:04:49.643Z,21.33
2018-10-12T19:07:18.061Z,21.73
2018-10-12T19:09:46.430Z,21.30
2018-10-12T19:12:14.912Z,21.80
2018-10-12T19:14:47.122Z,20.93
2018-10-12T19:17:15.512Z,21.97
2018-10-12T19:19:44.071Z,21.80
2018-10-12T19:22:12.310Z,21.20
2018-10-12T19:24:47.168Z,23.63
2018-10-12T19:27:15.632Z,25.20
2018-10-12T19:29:44.688Z,24.50
2018-10-12T19:32:13.071Z,28.17
2018-10-12T19:34:41.812Z,30.23
2018-10-12T19:37:10.130Z,25.70
2018-10-12T19:39:38.434Z,22.30
2018-10-12T19:42:06.750Z,22.33
2018-10-12T19:44:35.010Z,23.13
2018-10-12T19:47:03.359Z,23.50
2018-10-12T19:49:31.655Z,21.97
2018-10-12T19:52:00.089Z,22.43
2018-10-12T19:54:28.402Z,22.37
2018-10-12T19:56:56.797Z,21.63
2018-10-12T19:59:25.064Z,21.70
2018-10-12T20:01:53.402Z,22.70
2018-10-12T20:04:21.694Z,22.63
2018-10-12T20:06:50.166Z,23.60
2018-10-12T20:09:18.692Z,22.77
2018-10-12T20:11:47.046Z,22.23
2018-10-12T20:14:15.289Z,22.63
2018-10-12T20:16:43.610Z,20.57
2018-10-12T20:19:11.913Z,21.80
2018-10-12T20:21:40.187Z,23.07
2018-10-12T20:24:09.152Z,20.83
2018-10-12T20:26:37.410Z,22.10
2018-10-12T20:29:05.834Z,22.80
2018-10-12T20:31:34.340Z,21.10
2018-10-12T20:34:02.798Z,20.77
2018-10-12T20:36:31.459Z,20.93
2018-10-12T20:38:59.863Z,19.70
2018-10-12T20:41:28.313Z,20.40
2018-10-12T20:43:57.008Z,21.23
2018-10-12T20:46:25.316Z,23.07
2018-10-12T20:48:54.055Z,21.57
2018-10-12T20:51:22.402Z,21.87
2018-10-12T20:53:50.656Z,20.37
2018-10-12T20:56:18.899Z,22.20
2018-10-12T20:58:47.143Z,23.30
2018-10-12T21:01:15.538Z,23.20
2018-10-12T21:03:44.123Z,25.60
2018-10-12T21:06:12.371Z,23.00
2018-10-12T21:08:40.756Z,21.00
2018-10-12T21:11:38.069Z,21.90
2018-10-12T21:14:06.839Z,21.53
2018-10-12T21:22:35.335Z,21.60
2018-10-12T21:25:17.041Z,23.17
2018-10-12T21:28:02.248Z,23.10
2018-10-12T21:30:35.641Z,21.07
2018-10-12T21:33:11.855Z,22.50
2018-10-12T21:35:41.471Z,21.10
2018-10-12T21:38:10.817Z,21.90
2018-10-12T21:40:40.351Z,23.03
2018-10-12T21:43:10.412Z,23.23
2018-10-12T21:45:40.253Z,22.17
2018-10-12T21:48:09.083Z,22.23
2018-10-12T21:50:38.252Z,22.97
2018-10-12T21:53:06.903Z,23.60
2018-10-12T21:55:35.931Z,26.43
2018-10-12T21:58:05.886Z,23.70
2018-10-12T22:00:34.601Z,22.60
2018-10-12T22:03:02.984Z,22.13
2018-10-12T22:05:31.179Z,22.80
2018-10-12T22:07:59.434Z,24.30
2018-10-12T22:10:27.666Z,23.23
2018-10-12T22:12:55.906Z,33.13
2018-10-12T22:15:24.183Z,33.27
2018-10-12T22:17:52.660Z,25.77
2018-10-12T22:20:20.908Z,24.03
2018-10-12T22:22:49.119Z,24.13
2018-10-12T22:25:17.351Z,23.10
2018-10-12T22:27:45.669Z,25.40
2018-10-12T22:30:13.858Z,25.57
2018-10-12T22:32:42.109Z,24.40
2018-10-12T22:35:10.389Z,24.17
2018-10-12T22:37:38.667Z,24.67
2018-10-12T22:40:06.873Z,23.33
2018-10-12T22:42:35.180Z,23.63
2018-10-12T22:45:03.385Z,23.40
2018-10-12T22:47:31.659Z,24.17
2018-10-12T22:49:59.835Z,24.47
2018-10-12T22:52:28.074Z,25.10
2018-10-12T22:54:56.282Z,25.50
2018-10-12T22:57:24.595Z,24.77
2018-10-12T22:59:52.844Z,24.80
2018-10-12T23:02:21.054Z,25.90
2018-10-12T23:04:49.261Z,26.03
2018-10-12T23:07:17.582Z,25.90
2018-10-12T23:09:45.767Z,25.57
2018-10-12T23:12:13.973Z,24.57
2018-10-12T23:14:42.186Z,26.33
2018-10-12T23:17:10.430Z,26.17
2018-10-12T23:19:38.626Z,28.17
2018-10-12T23:22:07.506Z,26.73
2018-10-12T23:24:35.904Z,27.97
2018-10-12T23:27:04.080Z,26.57
2018-10-12T23:29:32.300Z,24.67
2018-10-12T23:32:00.507Z,26.27
2018-10-12T23:34:28.808Z,28.93
2018-10-12T23:36:56.998Z,28.20
2018-10-12T23:39:25.248Z,28.30
2018-10-12T23:41:53.564Z,28.37
2018-10-12T23:44:21.781Z,27.97
2018-10-12T23:46:49.976Z,27.20
2018-10-12T23:49:18.209Z,26.63
2018-10-12T23:51:46.418Z,27.27
2018-10-12T23:54:14.628Z,27.53
2018-10-12T23:56:42.895Z,29.00
2018-10-12T23:59:11.122Z,26.13
